createdAt,value
2022-10-18T00:00:07.530Z,102253.63
2022-10-18T00:02:34.056Z,102260.94
2022-10-18T00:05:00.732Z,102265.50
2022-10-18T00:07:27.284Z,102258.38
2022-10-18T00:09:53.692Z,102259.69
2022-10-18T00:12:20.090Z,102259.94
2022-10-18T00:14:50.481Z,102254.63
2022-10-18T00:17:16.971Z,102268.41
2022-10-18T00:19:43.465Z,102266.84
2022-10-18T00:22:09.882Z,102258.13
2022-10-18T00:24:36.242Z,102260.03
2022-10-18T00:27:02.648Z,102262.69
2022-10-18T00:29:29.018Z,102262.69
2022-10-18T00:31:55.416Z,102265.91
2022-10-18T00:34:21.792Z,102268.19
2022-10-18T00:36:48.315Z,102267.34
2022-10-18T00:39:17.830Z,102273.47
2022-10-18T00:41:44.757Z,102264.94
2022-10-18T00:44:11.065Z,102273.47
2022-10-18T00:46:45.305Z,102271.91
2022-10-18T00:49:16.221Z,102265.63
2022-10-18T00:51:46.744Z,102270.06
2022-10-18T00:54:15.048Z,102268.50
2022-10-18T00:56:44.672Z,102260.78
2022-10-18T00:59:13.816Z,102255.69
2022-10-18T01:01:40.298Z,102258.72
2022-10-18T01:04:06.667Z,102266.56
2022-10-18T01:06:41.699Z,102263.84
2022-10-18T01:09:26.990Z,102272.31
2022-10-18T01:12:28.895Z,102274.56
2022-10-18T01:15:13.316Z,102282.91
2022-10-18T01:17:49.209Z,102278.44
2022-10-18T01:20:53.638Z,102282.03
2022-10-18T01:23:32.108Z,102281.78
2022-10-18T01:26:32.243Z,102281.66
2022-10-18T01:29:25.481Z,102276.91
2022-10-18T01:31:59.619Z,102275.19
2022-10-18T01:34:30.442Z,102290.41
2022-10-18T01:36:58.650Z,102274.97
2022-10-18T01:39:29.705Z,102284.75
2022-10-18T01:41:59.548Z,102276.91
2022-10-18T01:44:29.352Z,102280.97
2022-10-18T01:46:57.887Z,102281.78
2022-10-18T01:49:25.124Z,102280.09
2022-10-18T01:51:51.644Z,102276.22
2022-10-18T01:54:26.585Z,102279.25
2022-10-18T01:57:06.503Z,102278.38
2022-10-18T02:00:01.831Z,102281.69
2022-10-18T02:02:49.145Z,102272.81
2022-10-18T02:05:25.029Z,102279.31
2022-10-18T02:08:22.897Z,102276.41
2022-10-18T02:10:55.716Z,102275.72
2022-10-18T02:13:25.720Z,102273.19
2022-10-18T02:15:58.612Z,102282.56
2022-10-18T02:18:32.362Z,102278.69
2022-10-18T02:21:01.762Z,102280.72
2022-10-18T02:23:28.264Z,102284.28
2022-10-18T02:25:55.203Z,102285.59
2022-10-18T02:28:22.041Z,102288.47
2022-10-18T02:30:58.662Z,102282.47
2022-10-18T02:33:37.377Z,102277.78
2022-10-18T02:36:10.411Z,102273.31
2022-10-18T02:38:38.507Z,102270.78
2022-10-18T02:41:05.030Z,102269.75
2022-10-18T02:43:31.593Z,102275.66
2022-10-18T02:45:58.009Z,102279.38
2022-10-18T02:48:24.438Z,102276.81
2022-10-18T02:50:50.792Z,102276.13
2022-10-18T02:53:17.190Z,102280.72
2022-10-18T02:55:43.637Z,102286.91
2022-10-18T02:58:10.030Z,102277.72
2022-10-18T03:00:36.438Z,102286.66
2022-10-18T03:03:02.870Z,102274.78
2022-10-18T03:05:29.264Z,102280.38
2022-10-18T03:07:58.740Z,102292.78
2022-10-18T03:10:25.124Z,102291.31
2022-10-18T03:12:51.482Z,102294.50
2022-10-18T03:15:17.844Z,102293.25
2022-10-18T03:17:44.186Z,102289.41
2022-10-18T03:20:11.021Z,102283.41
2022-10-18T03:22:37.378Z,102289.78
2022-10-18T03:25:03.931Z,102290.41
2022-10-18T03:27:30.627Z,102297.00
2022-10-18T03:29:57.235Z,102289.56
2022-10-18T03:32:23.623Z,102290.88
2022-10-18T03:34:49.959Z,102297.72
2022-10-18T03:37:16.326Z,102293.84
2022-10-18T03:39:42.719Z,102297.16
2022-10-18T03:42:09.092Z,102298.47
2022-10-18T03:44:35.434Z,102290.66
2022-10-18T03:47:01.830Z,102293.91
2022-10-18T03:49:28.239Z,102296.47
2022-10-18T03:51:54.663Z,102294.28
2022-10-18T03:54:21.099Z,102293.13
2022-10-18T03:56:47.428Z,102299.44
2022-10-18T03:59:13.870Z,102283.13
2022-10-18T04:01:40.289Z,102291.28
2022-10-18T04:04:06.694Z,102284.84
2022-10-18T04:06:33.053Z,102281.97
2022-10-18T04:08:59.418Z,102280.56
2022-10-18T04:11:25.773Z,102287.84
2022-10-18T04:13:52.213Z,102284.13
2022-10-18T04:16:18.563Z,102280.56
2022-10-18T04:18:44.953Z,102288.25
2022-10-18T04:21:11.297Z,102289.56
2022-10-18T04:23:38.880Z,102287.56
2022-10-18T04:26:05.689Z,102287.84
2022-10-18T04:28:33.420Z,102285.59
2022-10-18T04:30:59.926Z,102287.84
2022-10-18T04:33:26.368Z,102282.03
2022-10-18T04:35:53.480Z,102288.47
2022-10-18T04:38:20.080Z,102283.50
2022-10-18T04:40:46.790Z,102292.50
2022-10-18T04:43:13.160Z,102295.34
2022-10-18T04:45:39.617Z,102302.97
2022-10-18T04:48:06.673Z,102295.25
2022-10-18T04:50:33.120Z,102299.97
2022-10-18T04:52:59.501Z,102299.28
2022-10-18T04:55:25.974Z,102298.59
2022-10-18T04:57:53.017Z,102298.59
2022-10-18T05:00:19.496Z,102295.75
2022-10-18T05:02:45.885Z,102300.50
2022-10-18T05:05:14.062Z,102294.28
2022-10-18T05:07:40.846Z,102309.50
2022-10-18T05:10:07.990Z,102305.31
2022-10-18T05:12:34.754Z,102312.91
2022-10-18T05:15:01.292Z,102311.06
2022-10-18T05:17:27.674Z,102303.38
2022-10-18T05:19:54.037Z,102300.66
2022-10-18T05:22:20.420Z,102304.81
2022-10-18T05:24:46.860Z,102311.66
2022-10-18T05:27:13.219Z,102305.13
2022-10-18T05:29:39.647Z,102311.28
2022-10-18T05:32:06.058Z,102321.00
2022-10-18T05:34:33.006Z,102310.13
2022-10-18T05:36:59.908Z,102309.25
2022-10-18T05:39:26.361Z,102310.97
2022-10-18T05:41:52.705Z,102320.56
2022-10-18T05:44:19.193Z,102319.84
2022-10-18T05:46:45.557Z,102329.81
2022-10-18T05:49:13.255Z,102323.41
2022-10-18T05:51:39.597Z,102323.41
2022-10-18T05:54:06.144Z,102330.69
2022-10-18T05:56:32.966Z,102333.09
2022-10-18T05:58:59.322Z,102338.53
2022-10-18T06:01:25.701Z,102334.53
2022-10-18T06:03:52.152Z,102344.69
2022-10-18T06:06:18.603Z,102350.50
2022-10-18T06:08:45.005Z,102353.50
2022-10-18T06:11:14.595Z,102351.38
2022-10-18T06:13:46.152Z,102359.34
2022-10-18T06:16:13.829Z,102363.06
2022-10-18T06:18:40.912Z,102364.78
2022-10-18T06:21:08.193Z,102368.22
2022-10-18T06:23:34.867Z,102368.22
2022-10-18T06:26:02.892Z,102371.91
2022-10-18T06:28:30.052Z,102373.91
2022-10-18T06:30:57.802Z,102376.88
2022-10-18T06:33:24.597Z,102382.75
2022-10-18T06:36:02.921Z,102387.03
2022-10-18T06:38:30.475Z,102389.59
2022-10-18T06:40:58.236Z,102394.56
2022-10-18T06:43:25.398Z,102382.03
2022-10-18T06:45:52.715Z,102398.31
2022-10-18T06:50:56.964Z,102407.56
2022-10-18T06:53:25.003Z,102409.28
2022-10-18T06:55:51.535Z,102414.56
2022-10-18T06:58:18.411Z,102421.69
2022-10-18T07:00:45.985Z,102436.38
2022-10-18T07:03:12.401Z,102428.41
2022-10-18T07:05:38.902Z,102429.88
2022-10-18T07:08:05.298Z,102430.88
2022-10-18T07:10:31.649Z,102449.31
2022-10-18T07:13:13.662Z,102447.91
2022-10-18T07:15:44.413Z,102446.63
2022-10-18T07:18:11.059Z,102449.50
2022-10-18T07:20:37.436Z,102444.50
2022-10-18T07:23:05.553Z,102452.38
2022-10-18T07:25:31.907Z,102453.63
2022-10-18T07:28:01.248Z,102456.66
2022-10-18T07:30:27.620Z,102456.22
2022-10-18T07:32:54.133Z,102466.34
2022-10-18T07:35:20.504Z,102468.09
2022-10-18T07:37:46.907Z,102470.38
2022-10-18T07:40:13.295Z,102466.66
2022-10-18T07:42:39.697Z,102465.22
2022-10-18T07:45:06.934Z,102469.50
2022-10-18T07:47:35.216Z,102473.06
2022-10-18T07:50:01.915Z,102474.34
2022-10-18T07:52:28.297Z,102467.91
2022-10-18T07:54:54.681Z,102471.47
2022-10-18T07:57:21.051Z,102480.59
2022-10-18T07:59:48.305Z,102482.91
2022-10-18T08:02:14.667Z,102479.06
2022-10-18T08:04:41.578Z,102483.47
2022-10-18T08:07:07.939Z,102490.59
2022-10-18T08:09:34.298Z,102491.13
2022-10-18T08:12:00.729Z,102491.56
2022-10-18T08:14:27.093Z,102496.38
2022-10-18T08:16:53.485Z,102494.38
2022-10-18T08:19:19.868Z,102509.50
2022-10-18T08:21:46.191Z,102507.88
2022-10-18T08:24:12.527Z,102515.03
2022-10-18T08:26:38.897Z,102513.31
2022-10-18T08:29:23.012Z,102513.34
2022-10-18T08:31:51.355Z,102510.94
2022-10-18T08:34:19.809Z,102519.53
2022-10-18T08:36:46.459Z,102518.22
2022-10-18T08:39:12.790Z,102510.97
2022-10-18T08:41:57.586Z,102522.09
2022-10-18T08:44:46.957Z,102520.28
2022-10-18T08:47:18.690Z,102520.09
2022-10-18T08:49:50.396Z,102519.41
2022-10-18T08:52:35.586Z,102516.47
2022-10-18T08:55:11.988Z,102512.47
2022-10-18T08:57:38.377Z,102516.47
2022-10-18T09:00:15.579Z,102509.94
2022-10-18T09:02:58.207Z,102504.88
2022-10-18T09:05:54.633Z,102506.03
2022-10-18T09:08:20.920Z,102499.59
2022-10-18T09:11:05.978Z,102492.25
2022-10-18T09:14:17.811Z,102492.91
2022-10-18T09:17:05.704Z,102496.44
2022-10-18T09:19:43.662Z,102497.97
2022-10-18T09:22:18.128Z,102495.69
2022-10-18T09:25:06.268Z,102496.28
2022-10-18T09:27:56.710Z,102507.53
2022-10-18T09:30:32.925Z,102494.94
2022-10-18T09:33:14.415Z,102506.13
2022-10-18T09:35:52.238Z,102508.16
2022-10-18T09:40:56.449Z,102513.31
2022-10-18T09:43:30.320Z,102516.88
2022-10-18T09:45:57.481Z,102516.47
2022-10-18T09:48:29.226Z,102513.38
2022-10-18T09:51:05.385Z,102519.56
2022-10-18T09:53:56.680Z,102534.66
2022-10-18T09:56:44.802Z,102532.63
2022-10-18T09:59:29.800Z,102522.09
2022-10-18T10:01:56.563Z,102519.78
2022-10-18T10:04:23.020Z,102527.03
2022-10-18T10:06:51.042Z,102529.50
2022-10-18T10:09:21.466Z,102526.25
2022-10-18T10:11:49.842Z,102532.25
2022-10-18T10:14:25.501Z,102532.66
2022-10-18T10:16:54.717Z,102541.38
2022-10-18T10:19:34.655Z,102526.31
2022-10-18T10:22:08.287Z,102524.44
2022-10-18T10:24:46.856Z,102535.28
2022-10-18T10:27:35.113Z,102539.31
2022-10-18T10:30:07.071Z,102532.47
2022-10-18T10:32:48.259Z,102525.47
2022-10-18T10:35:53.924Z,102535.00
2022-10-18T10:38:28.745Z,102532.59
2022-10-18T10:40:56.000Z,102528.63
2022-10-18T10:43:37.535Z,102531.19
2022-10-18T10:46:11.690Z,102537.44
2022-10-18T10:49:21.653Z,102543.66
2022-10-18T10:51:50.596Z,102544.94
2022-10-18T10:54:26.497Z,102535.88
2022-10-18T10:57:01.080Z,102537.00
2022-10-18T10:59:32.095Z,102541.34
2022-10-18T11:02:20.579Z,102549.09
2022-10-18T11:04:55.042Z,102544.31
2022-10-18T11:07:36.823Z,102543.00
2022-10-18T11:10:12.458Z,102545.66
2022-10-18T11:12:45.065Z,102540.47
2022-10-18T11:15:14.435Z,102556.00
2022-10-18T11:17:56.102Z,102547.00
2022-10-18T11:20:29.529Z,102543.50
2022-10-18T11:22:55.814Z,102545.25
2022-10-18T11:25:25.524Z,102539.72
2022-10-18T11:28:04.327Z,102542.03
2022-10-18T11:30:36.857Z,102541.56
2022-10-18T11:33:14.239Z,102539.72
2022-10-18T11:36:04.617Z,102535.56
2022-10-18T11:38:53.793Z,102534.38
2022-10-18T11:41:38.287Z,102529.81
2022-10-18T11:44:19.203Z,102538.28
2022-10-18T11:46:57.676Z,102541.22
2022-10-18T11:49:32.983Z,102535.50
2022-10-18T11:52:13.673Z,102534.88
2022-10-18T11:55:04.648Z,102535.19
2022-10-18T11:57:53.010Z,102533.13
2022-10-18T12:00:46.176Z,102536.25
2022-10-18T12:03:20.290Z,102527.66
2022-10-18T12:05:49.801Z,102517.66
2022-10-18T12:08:21.378Z,102517.28
2022-10-18T12:11:04.701Z,102516.22
2022-10-18T12:14:07.006Z,102515.03
2022-10-18T12:16:52.250Z,102517.81
2022-10-18T12:19:26.942Z,102519.72
2022-10-18T12:21:57.534Z,102525.28
2022-10-18T12:24:28.504Z,102518.59
2022-10-18T12:26:59.502Z,102519.56
2022-10-18T12:29:46.682Z,102501.31
2022-10-18T12:32:20.479Z,102512.28
2022-10-18T12:34:51.866Z,102515.63
2022-10-18T12:37:36.816Z,102511.84
2022-10-18T12:40:21.902Z,102514.88
2022-10-18T12:42:51.271Z,102514.97
2022-10-18T12:45:32.219Z,102514.91
2022-10-18T12:48:30.737Z,102508.88
2022-10-18T12:51:04.210Z,102499.53
2022-10-18T12:53:32.007Z,102511.22
2022-10-18T12:56:29.557Z,102507.72
2022-10-18T12:59:14.497Z,102503.25
2022-10-18T13:01:50.469Z,102510.13
2022-10-18T13:04:29.468Z,102504.09
2022-10-18T13:06:59.481Z,102493.88
2022-10-18T13:09:30.360Z,102500.19
2022-10-18T13:12:08.898Z,102495.69
2022-10-18T13:15:12.462Z,102498.00
2022-10-18T13:17:58.538Z,102481.22
2022-10-18T13:21:12.084Z,102477.53
2022-10-18T13:23:42.419Z,102480.38
2022-10-18T13:26:24.278Z,102474.06
2022-10-18T13:29:05.572Z,102473.72
2022-10-18T13:31:47.292Z,102465.81
2022-10-18T13:34:27.636Z,102459.81
2022-10-18T13:37:09.014Z,102476.31
2022-10-18T13:39:36.986Z,102468.19
2022-10-18T13:42:03.325Z,102470.81
2022-10-18T13:44:33.239Z,102474.41
2022-10-18T13:46:59.528Z,102488.72
2022-10-18T13:50:00.610Z,102483.84
2022-10-18T13:52:49.664Z,102488.38
2022-10-18T13:55:55.860Z,102493.22
2022-10-18T13:59:13.164Z,102493.22
2022-10-18T14:01:58.781Z,102492.13
2022-10-18T14:04:47.546Z,102488.31
2022-10-18T14:07:19.141Z,102499.47
2022-10-18T14:09:56.174Z,102500.63
2022-10-18T14:12:47.585Z,102502.78
2022-10-18T14:15:49.151Z,102492.16
2022-10-18T14:18:22.715Z,102490.00
2022-10-18T14:21:12.342Z,102495.34
2022-10-18T14:23:45.037Z,102494.69
2022-10-18T14:26:15.096Z,102496.31
2022-10-18T14:28:59.040Z,102496.03
2022-10-18T14:31:27.233Z,102500.75
2022-10-18T14:33:58.368Z,102497.47
2022-10-18T14:36:29.369Z,102493.66
2022-10-18T14:39:01.201Z,102502.03
2022-10-18T14:41:47.307Z,102504.88
2022-10-18T14:44:16.731Z,102500.06
2022-10-18T14:46:49.451Z,102501.59
2022-10-18T14:49:17.294Z,102498.59
2022-10-18T14:51:46.692Z,102498.38
2022-10-18T14:54:19.578Z,102499.66
2022-10-18T14:56:46.411Z,102505.91
2022-10-18T14:59:18.903Z,102509.06
2022-10-18T15:02:01.255Z,102514.69
2022-10-18T15:04:34.922Z,102507.03
2022-10-18T15:07:07.164Z,102518.22
2022-10-18T15:09:35.805Z,102512.00
2022-10-18T15:12:05.536Z,102505.88
2022-10-18T15:14:32.298Z,102501.91
2022-10-18T15:17:02.676Z,102507.59
2022-10-18T15:19:35.603Z,102500.00
2022-10-18T15:25:32.115Z,102505.72
2022-10-18T15:28:00.602Z,102509.84
2022-10-18T15:30:36.149Z,102512.25
2022-10-18T15:33:05.084Z,102514.59
2022-10-18T15:35:33.790Z,102506.75
2022-10-18T15:38:13.099Z,102508.81
2022-10-18T15:40:40.779Z,102506.94
2022-10-18T15:43:25.867Z,102516.34
2022-10-18T15:45:53.349Z,102516.53
2022-10-18T15:48:36.462Z,102512.47
2022-10-18T15:51:05.115Z,102513.47
2022-10-18T15:53:50.301Z,102521.50
2022-10-18T15:56:38.011Z,102524.56
2022-10-18T15:59:20.474Z,102534.31
2022-10-18T16:01:46.999Z,102541.63
2022-10-18T16:04:27.184Z,102526.94
2022-10-18T16:06:56.048Z,102529.88
2022-10-18T16:09:25.116Z,102528.03
2022-10-18T16:11:55.815Z,102529.19
2022-10-18T16:14:23.316Z,102537.00
2022-10-18T16:16:54.157Z,102526.53
2022-10-18T16:19:23.930Z,102532.38
2022-10-18T16:21:51.901Z,102537.63
2022-10-18T16:24:18.683Z,102543.53
2022-10-18T16:26:45.538Z,102544.22
2022-10-18T16:29:28.475Z,102543.94
2022-10-18T16:31:58.003Z,102538.38
2022-10-18T16:34:28.020Z,102543.53
2022-10-18T16:36:55.229Z,102545.84
2022-10-18T16:39:22.311Z,102537.91
2022-10-18T16:41:48.718Z,102547.84
2022-10-18T16:44:16.478Z,102547.91
2022-10-18T16:46:42.853Z,102554.75
2022-10-18T16:51:46.345Z,102562.59
2022-10-18T16:54:12.809Z,102563.47
2022-10-18T16:56:39.571Z,102563.50
2022-10-18T16:59:06.012Z,102569.63
2022-10-18T17:01:32.468Z,102574.00
2022-10-18T17:03:58.901Z,102579.72
2022-10-18T17:06:29.318Z,102579.31
2022-10-18T17:08:56.772Z,102580.09
2022-10-18T17:11:26.367Z,102574.66
2022-10-18T17:13:53.110Z,102580.19
2022-10-18T17:19:04.798Z,102587.53
2022-10-18T17:21:33.533Z,102595.38
2022-10-18T17:24:02.948Z,102593.66
2022-10-18T17:26:30.166Z,102601.88
2022-10-18T17:29:03.047Z,102599.84
2022-10-18T17:31:30.559Z,102607.00
2022-10-18T17:33:58.760Z,102604.13
2022-10-18T17:36:25.773Z,102603.16
2022-10-18T17:38:55.721Z,102599.72
2022-10-18T17:41:22.330Z,102602.56
2022-10-18T17:43:49.390Z,102601.28
2022-10-18T17:46:17.684Z,102606.72
2022-10-18T17:48:44.413Z,102607.31
2022-10-18T17:51:14.005Z,102608.16
2022-10-18T17:53:40.502Z,102618.31
2022-10-18T17:56:07.802Z,102623.78
2022-10-18T17:58:34.760Z,102628.03
2022-10-18T18:01:12.905Z,102633.91
2022-10-18T18:03:40.531Z,102629.19
2022-10-18T18:06:31.278Z,102635.34
2022-10-18T18:08:59.812Z,102636.31
2022-10-18T18:11:27.272Z,102631.44
2022-10-18T18:13:57.531Z,102627.88
2022-10-18T18:16:26.876Z,102627.03
2022-10-18T18:18:56.281Z,102624.28
2022-10-18T18:21:23.275Z,102618.41
2022-10-18T18:23:50.520Z,102620.44
2022-10-18T18:26:19.087Z,102625.69
2022-10-18T18:28:45.658Z,102628.56
2022-10-18T18:31:18.351Z,102632.97
2022-10-18T18:33:45.114Z,102632.41
2022-10-18T18:36:12.589Z,102638.00
2022-10-18T18:38:42.556Z,102638.56
2022-10-18T18:41:17.937Z,102637.09
2022-10-18T18:43:55.230Z,102642.56
2022-10-18T18:46:22.726Z,102642.09
2022-10-18T18:48:49.751Z,102649.25
2022-10-18T18:51:19.026Z,102644.53
2022-10-18T18:53:47.039Z,102649.66
2022-10-18T18:56:16.290Z,102643.97
2022-10-18T18:58:44.130Z,102646.72
2022-10-18T19:01:13.686Z,102648.78
2022-10-18T19:03:41.559Z,102644.34
2022-10-18T19:06:11.596Z,102641.97
2022-10-18T19:08:39.980Z,102653.19
2022-10-18T19:11:09.205Z,102648.78
2022-10-18T19:13:36.022Z,102641.63
2022-10-18T19:16:17.681Z,102648.06
2022-10-18T19:18:49.127Z,102653.22
2022-10-18T19:21:15.526Z,102648.91
2022-10-18T19:23:41.895Z,102654.50
2022-10-18T19:26:22.805Z,102657.91
2022-10-18T19:28:49.193Z,102656.16
2022-10-18T19:31:15.554Z,102652.53
2022-10-18T19:33:55.593Z,102649.25
2022-10-18T19:36:25.236Z,102647.81
2022-10-18T19:38:51.647Z,102641.69
2022-10-18T19:41:18.078Z,102647.03
2022-10-18T19:43:44.467Z,102654.03
2022-10-18T19:46:11.476Z,102650.16
2022-10-18T19:48:37.892Z,102649.22
2022-10-18T19:51:07.083Z,102645.00
2022-10-18T19:53:35.714Z,102643.56
2022-10-18T19:56:04.283Z,102645.84
2022-10-18T19:58:30.716Z,102642.84
2022-10-18T20:00:57.800Z,102644.28
2022-10-18T20:03:24.778Z,102637.41
2022-10-18T20:05:56.429Z,102648.06
2022-10-18T20:08:24.140Z,102646.13
2022-10-18T20:10:51.177Z,102650.03
2022-10-18T20:13:18.286Z,102646.38
2022-10-18T20:15:47.788Z,102657.38
2022-10-18T20:18:15.227Z,102650.22
2022-10-18T20:20:44.577Z,102661.91
2022-10-18T20:23:14.699Z,102659.94
2022-10-18T20:25:41.073Z,102660.13
2022-10-18T20:28:07.504Z,102669.50
2022-10-18T20:30:34.094Z,102661.63
2022-10-18T20:33:00.481Z,102663.06
2022-10-18T20:35:26.851Z,102662.00
2022-10-18T20:37:53.196Z,102663.72
2022-10-18T20:40:19.626Z,102661.09
2022-10-18T20:42:46.006Z,102658.06
2022-10-18T20:45:12.405Z,102654.50
2022-10-18T20:47:38.827Z,102653.66
2022-10-18T20:50:05.580Z,102637.41
2022-10-18T20:52:31.950Z,102638.41
2022-10-18T20:54:58.274Z,102635.84
2022-10-18T20:57:24.633Z,102635.44
2022-10-18T20:59:50.971Z,102640.63
2022-10-18T21:02:17.386Z,102637.63
2022-10-18T21:04:43.776Z,102640.25
2022-10-18T21:07:10.116Z,102640.22
2022-10-18T21:09:36.463Z,102639.22
2022-10-18T21:12:02.922Z,102633.03
2022-10-18T21:14:29.358Z,102641.06
2022-10-18T21:16:55.742Z,102637.72
2022-10-18T21:19:26.513Z,102640.19
2022-10-18T21:21:55.718Z,102641.16
2022-10-18T21:24:24.083Z,102642.44
2022-10-18T21:26:50.522Z,102634.00
2022-10-18T21:29:21.864Z,102635.69
2022-10-18T21:31:49.154Z,102631.41
2022-10-18T21:34:17.380Z,102641.50
2022-10-18T21:36:45.768Z,102637.16
2022-10-18T21:39:14.871Z,102646.66
2022-10-18T21:41:42.182Z,102647.44
2022-10-18T21:44:10.706Z,102636.84
2022-10-18T21:46:39.162Z,102640.91
2022-10-18T21:49:06.234Z,102643.38
2022-10-18T21:51:32.593Z,102638.66
2022-10-18T21:53:59.152Z,102638.53
2022-10-18T21:56:31.294Z,102640.50
2022-10-18T21:58:57.934Z,102631.44
2022-10-18T22:01:32.143Z,102639.31
2022-10-18T22:04:00.003Z,102636.75
2022-10-18T22:06:29.548Z,102638.53
2022-10-18T22:08:58.270Z,102641.41
2022-10-18T22:11:36.738Z,102637.34
2022-10-18T22:14:03.184Z,102635.63
2022-10-18T22:16:29.595Z,102631.44
2022-10-18T22:19:01.422Z,102624.81
2022-10-18T22:21:28.868Z,102626.53
2022-10-18T22:23:59.741Z,102630.38
2022-10-18T22:26:29.055Z,102631.44
2022-10-18T22:29:05.025Z,102629.63
2022-10-18T22:31:34.173Z,102631.94
2022-10-18T22:34:07.203Z,102626.81
2022-10-18T22:36:34.549Z,102626.81
2022-10-18T22:39:01.679Z,102633.47
2022-10-18T22:41:28.321Z,102626.66
2022-10-18T22:43:56.390Z,102628.38
2022-10-18T22:46:25.969Z,102627.28
2022-10-18T22:48:52.815Z,102616.84
2022-10-18T22:51:19.275Z,102627.31
2022-10-18T22:53:46.144Z,102625.22
2022-10-18T22:56:15.984Z,102622.75
2022-10-18T22:58:42.511Z,102617.34
2022-10-18T23:01:15.377Z,102626.41
2022-10-18T23:03:42.300Z,102629.75
2022-10-18T23:06:26.643Z,102619.78
2022-10-18T23:08:54.607Z,102627.16
2022-10-18T23:11:21.481Z,102620.63
2022-10-18T23:13:48.225Z,102623.22
2022-10-18T23:16:14.700Z,102614.94
2022-10-18T23:18:41.353Z,102622.56
2022-10-18T23:21:11.811Z,102623.31
2022-10-18T23:23:40.491Z,102628.13
2022-10-18T23:26:12.947Z,102618.91
2022-10-18T23:28:42.064Z,102618.31
2022-10-18T23:31:20.456Z,102627.56
2022-10-18T23:33:48.943Z,102633.38
2022-10-18T23:36:15.641Z,102628.94
2022-10-18T23:38:42.307Z,102629.81
2022-10-18T23:41:11.633Z,102627.06
2022-10-18T23:43:38.749Z,102633.38
2022-10-18T23:46:05.458Z,102625.16
2022-10-18T23:48:32.108Z,102629.09
2022-10-18T23:50:58.477Z,102629.31
2022-10-18T23:53:24.878Z,102627.25
2022-10-18T23:56:00.798Z,102622.31
2022-10-18T23:58:30.045Z,102628.63
